sensor_id;sensor_type;location;lat;lon;timestamp;temperature;humidity
17687;DHT22;8962;52.538;13.266;2023-04-02T00:02:30;3.90;99.90
17687;DHT22;8962;52.538;13.266;2023-04-02T00:05:31;3.90;99.90
17687;DHT22;8962;52.538;13.266;2023-04-02T00:08:21;3.90;99.90
17687;DHT22;8962;52.538;13.266;2023-04-02T00:10:54;3.90;99.90
17687;DHT22;8962;52.538;13.266;2023-04-02T00:13:28;3.90;99.90
17687;DHT22;8962;52.538;13.266;2023-04-02T00:15:56;3.90;99.90
17687;DHT22;8962;52.538;13.266;2023-04-02T00:18:25;3.90;99.90
17687;DHT22;8962;52.538;13.266;2023-04-02T00:20:56;3.90;99.90
17687;DHT22;8962;52.538;13.266;2023-04-02T00:23:26;3.90;99.90
17687;DHT22;8962;52.538;13.266;2023-04-02T00:25:55;3.90;99.90
17687;DHT22;8962;52.538;13.266;2023-04-02T00:28:23;3.90;99.90
17687;DHT22;8962;52.538;13.266;2023-04-02T00:30:53;3.90;99.90
17687;DHT22;8962;52.538;13.266;2023-04-02T00:33:22;3.80;99.90
17687;DHT22;8962;52.538;13.266;2023-04-02T00:35:53;3.80;99.90
17687;DHT22;8962;52.538;13.266;2023-04-02T00:38:24;3.80;99.90
17687;DHT22;8962;52.538;13.266;2023-04-02T00:40:57;3.90;99.90
17687;DHT22;8962;52.538;13.266;2023-04-02T00:43:28;3.90;99.90
17687;DHT22;8962;52.538;13.266;2023-04-02T00:45:59;3.80;99.90
17687;DHT22;8962;52.538;13.266;2023-04-02T00:48:38;3.80;99.90
17687;DHT22;8962;52.538;13.266;2023-04-02T00:51:13;3.90;99.90
17687;DHT22;8962;52.538;13.266;2023-04-02T00:53:44;3.90;99.90
17687;DHT22;8962;52.538;13.266;2023-04-02T00:56:17;3.90;99.90
17687;DHT22;8962;52.538;13.266;2023-04-02T00:58:51;4.00;99.90
17687;DHT22;8962;52.538;13.266;2023-04-02T01:01:22;3.90;99.90
17687;DHT22;8962;52.538;13.266;2023-04-02T01:03:55;3.90;99.90
17687;DHT22;8962;52.538;13.266;2023-04-02T01:06:27;3.80;99.90
17687;DHT22;8962;52.538;13.266;2023-04-02T01:09:04;3.80;99.90
17687;DHT22;8962;52.538;13.266;2023-04-02T01:11:47;3.80;99.90
17687;DHT22;8962;52.538;13.266;2023-04-02T01:14:22;3.90;99.90
17687;DHT22;8962;52.538;13.266;2023-04-02T01:16:57;3.90;99.90
17687;DHT22;8962;52.538;13.266;2023-04-02T01:19:43;3.80;99.90
17687;DHT22;8962;52.538;13.266;2023-04-02T01:22:21;3.90;99.90
17687;DHT22;8962;52.538;13.266;2023-04-02T01:24:55;3.90;99.90
17687;DHT22;8962;52.538;13.266;2023-04-02T01:27:27;3.80;99.90
17687;DHT22;8962;52.538;13.266;2023-04-02T01:29:59;3.90;99.90
17687;DHT22;8962;52.538;13.266;2023-04-02T01:32:30;3.90;99.90
17687;DHT22;8962;52.538;13.266;2023-04-02T01:34:58;3.90;99.90
17687;DHT22;8962;52.538;13.266;2023-04-02T01:37:34;3.90;99.90
17687;DHT22;8962;52.538;13.266;2023-04-02T01:40:11;3.90;99.90
17687;DHT22;8962;52.538;13.266;2023-04-02T01:42:50;3.90;99.90
17687;DHT22;8962;52.538;13.266;2023-04-02T01:45:21;3.80;99.90
17687;DHT22;8962;52.538;13.266;2023-04-02T01:47:49;3.80;99.90
17687;DHT22;8962;52.538;13.266;2023-04-02T01:50:23;3.80;99.90
17687;DHT22;8962;52.538;13.266;2023-04-02T01:52:58;3.90;99.90
17687;DHT22;8962;52.538;13.266;2023-04-02T01:55:32;3.70;99.90
17687;DHT22;8962;52.538;13.266;2023-04-02T01:58:00;3.80;99.90
17687;DHT22;8962;52.538;13.266;2023-04-02T02:00:31;3.80;99.90
17687;DHT22;8962;52.538;13.266;2023-04-02T02:03:01;3.80;99.90
17687;DHT22;8962;52.538;13.266;2023-04-02T02:05:30;3.90;99.90
17687;DHT22;8962;52.538;13.266;2023-04-02T02:07:57;3.90;99.90
17687;DHT22;8962;52.538;13.266;2023-04-02T02:10:28;3.90;99.90
17687;DHT22;8962;52.538;13.266;2023-04-02T02:12:59;3.90;99.90
17687;DHT22;8962;52.538;13.266;2023-04-02T02:15:29;3.80;99.90
17687;DHT22;8962;52.538;13.266;2023-04-02T02:18:02;3.80;99.90
17687;DHT22;8962;52.538;13.266;2023-04-02T02:20:32;3.80;99.90
17687;DHT22;8962;52.538;13.266;2023-04-02T02:23:01;3.80;99.90
17687;DHT22;8962;52.538;13.266;2023-04-02T02:25:31;3.80;99.90
17687;DHT22;8962;52.538;13.266;2023-04-02T02:28:01;3.90;99.90
17687;DHT22;8962;52.538;13.266;2023-04-02T02:30:33;3.90;99.90
17687;DHT22;8962;52.538;13.266;2023-04-02T02:33:08;3.90;99.90
17687;DHT22;8962;52.538;13.266;2023-04-02T02:35:43;3.80;99.90
17687;DHT22;8962;52.538;13.266;2023-04-02T02:38:29;3.90;99.90
17687;DHT22;8962;52.538;13.266;2023-04-02T02:41:12;3.90;99.90
17687;DHT22;8962;52.538;13.266;2023-04-02T02:43:44;3.80;99.90
17687;DHT22;8962;52.538;13.266;2023-04-02T02:46:15;3.80;99.90
17687;DHT22;8962;52.538;13.266;2023-04-02T02:48:45;3.80;99.90
17687;DHT22;8962;52.538;13.266;2023-04-02T02:51:20;3.80;99.90
17687;DHT22;8962;52.538;13.266;2023-04-02T02:53:55;3.80;99.90
17687;DHT22;8962;52.538;13.266;2023-04-02T02:56:25;3.80;99.90
17687;DHT22;8962;52.538;13.266;2023-04-02T02:58:53;3.80;99.90
17687;DHT22;8962;52.538;13.266;2023-04-02T03:01:29;3.80;99.90
17687;DHT22;8962;52.538;13.266;2023-04-02T03:04:02;3.80;99.90
17687;DHT22;8962;52.538;13.266;2023-04-02T03:06:30;3.80;99.90
17687;DHT22;8962;52.538;13.266;2023-04-02T03:09:02;3.80;99.90
17687;DHT22;8962;52.538;13.266;2023-04-02T03:11:39;3.90;99.90
17687;DHT22;8962;52.538;13.266;2023-04-02T03:14:19;3.80;99.90
17687;DHT22;8962;52.538;13.266;2023-04-02T03:16:55;3.90;99.90
17687;DHT22;8962;52.538;13.266;2023-04-02T03:19:32;3.80;99.90
17687;DHT22;8962;52.538;13.266;2023-04-02T03:22:05;3.80;99.90
17687;DHT22;8962;52.538;13.266;2023-04-02T03:24:43;3.80;99.90
17687;DHT22;8962;52.538;13.266;2023-04-02T03:27:16;3.80;99.90
17687;DHT22;8962;52.538;13.266;2023-04-02T03:29:57;3.80;99.90
17687;DHT22;8962;52.538;13.266;2023-04-02T03:32:33;3.90;99.90
17687;DHT22;8962;52.538;13.266;2023-04-02T03:35:16;3.90;99.90
17687;DHT22;8962;52.538;13.266;2023-04-02T03:37:50;3.80;99.90
17687;DHT22;8962;52.538;13.266;2023-04-02T03:40:22;3.90;99.90
17687;DHT22;8962;52.538;13.266;2023-04-02T03:42:54;3.90;99.90
17687;DHT22;8962;52.538;13.266;2023-04-02T03:45:28;3.90;99.90
17687;DHT22;8962;52.538;13.266;2023-04-02T03:47:57;4.00;99.90
17687;DHT22;8962;52.538;13.266;2023-04-02T03:50:32;4.00;99.90
17687;DHT22;8962;52.538;13.266;2023-04-02T03:53:01;4.00;99.90
17687;DHT22;8962;52.538;13.266;2023-04-02T03:55:31;4.00;99.90
17687;DHT22;8962;52.538;13.266;2023-04-02T03:58:02;3.90;99.90
17687;DHT22;8962;52.538;13.266;2023-04-02T04:00:36;3.90;99.90
17687;DHT22;8962;52.538;13.266;2023-04-02T04:03:10;3.80;99.90
17687;DHT22;8962;52.538;13.266;2023-04-02T04:05:46;3.80;99.90
17687;DHT22;8962;52.538;13.266;2023-04-02T04:08:17;3.80;99.90
17687;DHT22;8962;52.538;13.266;2023-04-02T04:10:48;3.80;99.90
17687;DHT22;8962;52.538;13.266;2023-04-02T04:13:19;3.80;99.90
17687;DHT22;8962;52.538;13.266;2023-04-02T04:15:53;3.90;99.90
17687;DHT22;8962;52.538;13.266;2023-04-02T04:18:28;3.90;99.90
17687;DHT22;8962;52.538;13.266;2023-04-02T04:21:05;3.80;99.90
17687;DHT22;8962;52.538;13.266;2023-04-02T04:23:39;3.80;99.90
17687;DHT22;8962;52.538;13.266;2023-04-02T04:26:19;3.80;99.90
17687;DHT22;8962;52.538;13.266;2023-04-02T04:28:59;3.90;99.90
17687;DHT22;8962;52.538;13.266;2023-04-02T04:31:35;3.80;99.90
17687;DHT22;8962;52.538;13.266;2023-04-02T04:34:10;3.80;99.90
17687;DHT22;8962;52.538;13.266;2023-04-02T04:36:43;3.90;99.90
17687;DHT22;8962;52.538;13.266;2023-04-02T04:39:17;4.00;99.90
17687;DHT22;8962;52.538;13.266;2023-04-02T04:41:51;4.00;99.90
17687;DHT22;8962;52.538;13.266;2023-04-02T04:44:22;4.00;99.90
17687;DHT22;8962;52.538;13.266;2023-04-02T04:46:58;4.00;99.90
17687;DHT22;8962;52.538;13.266;2023-04-02T04:49:32;4.00;99.90
17687;DHT22;8962;52.538;13.266;2023-04-02T04:52:07;4.00;99.90
17687;DHT22;8962;52.538;13.266;2023-04-02T04:54:38;4.10;99.90
17687;DHT22;8962;52.538;13.266;2023-04-02T04:57:20;4.00;99.90
17687;DHT22;8962;52.538;13.266;2023-04-02T04:59:54;3.90;99.90
17687;DHT22;8962;52.538;13.266;2023-04-02T05:02:25;4.00;99.90
17687;DHT22;8962;52.538;13.266;2023-04-02T05:04:53;4.00;99.90
17687;DHT22;8962;52.538;13.266;2023-04-02T05:07:27;4.00;99.90
17687;DHT22;8962;52.538;13.266;2023-04-02T05:09:58;4.00;99.90
17687;DHT22;8962;52.538;13.266;2023-04-02T05:12:34;4.10;99.90
17687;DHT22;8962;52.538;13.266;2023-04-02T05:15:13;4.10;99.90
17687;DHT22;8962;52.538;13.266;2023-04-02T05:17:46;4.10;99.90
17687;DHT22;8962;52.538;13.266;2023-04-02T05:20:20;4.10;99.90
17687;DHT22;8962;52.538;13.266;2023-04-02T05:22:59;4.10;99.90
17687;DHT22;8962;52.538;13.266;2023-04-02T05:25:30;4.20;99.90
17687;DHT22;8962;52.538;13.266;2023-04-02T05:28:04;4.20;99.90
17687;DHT22;8962;52.538;13.266;2023-04-02T05:30:42;4.20;99.90
17687;DHT22;8962;52.538;13.266;2023-04-02T05:33:21;4.10;99.90
17687;DHT22;8962;52.538;13.266;2023-04-02T05:35:55;4.10;99.90
17687;DHT22;8962;52.538;13.266;2023-04-02T05:38:27;4.10;99.90
17687;DHT22;8962;52.538;13.266;2023-04-02T05:40:59;4.20;99.90
17687;DHT22;8962;52.538;13.266;2023-04-02T05:43:32;4.10;99.90
17687;DHT22;8962;52.538;13.266;2023-04-02T05:46:06;4.10;99.90
17687;DHT22;8962;52.538;13.266;2023-04-02T05:48:37;4.20;99.90
17687;DHT22;8962;52.538;13.266;2023-04-02T05:51:08;4.20;99.90
17687;DHT22;8962;52.538;13.266;2023-04-02T05:53:46;4.20;99.90
17687;DHT22;8962;52.538;13.266;2023-04-02T05:56:18;4.20;99.90
17687;DHT22;8962;52.538;13.266;2023-04-02T05:58:51;4.10;99.90
17687;DHT22;8962;52.538;13.266;2023-04-02T06:01:34;4.20;99.90
17687;DHT22;8962;52.538;13.266;2023-04-02T06:04:16;4.10;99.90
17687;DHT22;8962;52.538;13.266;2023-04-02T06:06:52;4.10;99.90
17687;DHT22;8962;52.538;13.266;2023-04-02T06:09:29;4.10;99.90
17687;DHT22;8962;52.538;13.266;2023-04-02T06:12:07;4.10;99.90
17687;DHT22;8962;52.538;13.266;2023-04-02T06:14:37;4.10;99.90
17687;DHT22;8962;52.538;13.266;2023-04-02T06:17:04;4.30;99.90
17687;DHT22;8962;52.538;13.266;2023-04-02T06:19:36;4.30;99.90
17687;DHT22;8962;52.538;13.266;2023-04-02T06:22:13;4.30;99.90
17687;DHT22;8962;52.538;13.266;2023-04-02T06:24:47;4.40;99.90
17687;DHT22;8962;52.538;13.266;2023-04-02T06:27:17;4.60;99.90
17687;DHT22;8962;52.538;13.266;2023-04-02T06:29:49;4.60;99.90
17687;DHT22;8962;52.538;13.266;2023-04-02T06:32:22;4.50;99.90
17687;DHT22;8962;52.538;13.266;2023-04-02T06:34:51;4.50;99.90
17687;DHT22;8962;52.538;13.266;2023-04-02T06:37:23;4.60;99.90
17687;DHT22;8962;52.538;13.266;2023-04-02T06:40:00;4.90;99.90
17687;DHT22;8962;52.538;13.266;2023-04-02T06:42:32;4.90;99.90
17687;DHT22;8962;52.538;13.266;2023-04-02T06:45:20;4.80;99.90
17687;DHT22;8962;52.538;13.266;2023-04-02T06:48:15;4.90;99.90
17687;DHT22;8962;52.538;13.266;2023-04-02T06:50:47;5.00;99.90
17687;DHT22;8962;52.538;13.266;2023-04-02T06:53:19;5.10;99.90
17687;DHT22;8962;52.538;13.266;2023-04-02T06:55:53;5.30;99.90
17687;DHT22;8962;52.538;13.266;2023-04-02T06:58:26;5.40;99.90
17687;DHT22;8962;52.538;13.266;2023-04-02T07:00:54;5.50;99.90
17687;DHT22;8962;52.538;13.266;2023-04-02T07:03:31;5.70;99.90
17687;DHT22;8962;52.538;13.266;2023-04-02T07:06:13;5.70;99.90
17687;DHT22;8962;52.538;13.266;2023-04-02T07:08:40;5.80;99.90
17687;DHT22;8962;52.538;13.266;2023-04-02T07:11:12;5.80;99.90
17687;DHT22;8962;52.538;13.266;2023-04-02T07:13:39;5.90;99.90
17687;DHT22;8962;52.538;13.266;2023-04-02T07:16:13;5.90;99.90
17687;DHT22;8962;52.538;13.266;2023-04-02T07:18:41;5.90;99.90
17687;DHT22;8962;52.538;13.266;2023-04-02T07:21:09;5.80;99.90
17687;DHT22;8962;52.538;13.266;2023-04-02T07:23:37;5.80;99.90
17687;DHT22;8962;52.538;13.266;2023-04-02T07:26:05;5.80;99.90
17687;DHT22;8962;52.538;13.266;2023-04-02T07:28:35;5.80;99.90
17687;DHT22;8962;52.538;13.266;2023-04-02T07:31:02;5.60;99.90
17687;DHT22;8962;52.538;13.266;2023-04-02T07:33:29;5.70;99.90
17687;DHT22;8962;52.538;13.266;2023-04-02T07:35:57;5.70;99.90
17687;DHT22;8962;52.538;13.266;2023-04-02T07:38:24;6.00;99.90
17687;DHT22;8962;52.538;13.266;2023-04-02T07:40:51;6.30;99.90
17687;DHT22;8962;52.538;13.266;2023-04-02T07:43:18;6.40;99.90
17687;DHT22;8962;52.538;13.266;2023-04-02T07:45:48;6.50;99.90
17687;DHT22;8962;52.538;13.266;2023-04-02T07:48:16;6.30;99.90
17687;DHT22;8962;52.538;13.266;2023-04-02T07:50:43;6.10;99.90
17687;DHT22;8962;52.538;13.266;2023-04-02T07:53:26;6.10;99.90
17687;DHT22;8962;52.538;13.266;2023-04-02T07:55:54;5.80;99.90
17687;DHT22;8962;52.538;13.266;2023-04-02T07:58:21;5.80;99.90
17687;DHT22;8962;52.538;13.266;2023-04-02T08:00:50;5.70;99.90
17687;DHT22;8962;52.538;13.266;2023-04-02T08:03:17;5.70;99.90
17687;DHT22;8962;52.538;13.266;2023-04-02T08:05:49;5.80;99.90
17687;DHT22;8962;52.538;13.266;2023-04-02T08:08:17;5.70;99.90
17687;DHT22;8962;52.538;13.266;2023-04-02T08:10:45;6.00;99.90
17687;DHT22;8962;52.538;13.266;2023-04-02T08:13:12;6.10;99.90
17687;DHT22;8962;52.538;13.266;2023-04-02T08:15:39;6.30;99.90
17687;DHT22;8962;52.538;13.266;2023-04-02T08:18:08;6.30;99.90
17687;DHT22;8962;52.538;13.266;2023-04-02T08:20:38;6.40;99.90
17687;DHT22;8962;52.538;13.266;2023-04-02T08:23:12;6.40;99.90
17687;DHT22;8962;52.538;13.266;2023-04-02T08:25:42;6.40;99.90
17687;DHT22;8962;52.538;13.266;2023-04-02T08:28:09;6.40;99.90
17687;DHT22;8962;52.538;13.266;2023-04-02T08:30:36;6.20;99.90
17687;DHT22;8962;52.538;13.266;2023-04-02T08:33:03;6.40;99.90
17687;DHT22;8962;52.538;13.266;2023-04-02T08:35:32;6.20;99.90
17687;DHT22;8962;52.538;13.266;2023-04-02T08:38:00;6.30;99.90
17687;DHT22;8962;52.538;13.266;2023-04-02T08:40:31;6.40;99.90
17687;DHT22;8962;52.538;13.266;2023-04-02T08:43:17;6.50;99.90
17687;DHT22;8962;52.538;13.266;2023-04-02T08:45:55;6.60;99.90
17687;DHT22;8962;52.538;13.266;2023-04-02T08:48:27;6.50;99.90
17687;DHT22;8962;52.538;13.266;2023-04-02T08:51:01;6.30;99.90
17687;DHT22;8962;52.538;13.266;2023-04-02T08:53:32;6.10;99.90
17687;DHT22;8962;52.538;13.266;2023-04-02T08:56:06;6.20;99.90
17687;DHT22;8962;52.538;13.266;2023-04-02T08:58:44;6.30;99.90
17687;DHT22;8962;52.538;13.266;2023-04-02T09:01:20;6.10;99.90
17687;DHT22;8962;52.538;13.266;2023-04-02T09:03:51;5.80;99.90
17687;DHT22;8962;52.538;13.266;2023-04-02T09:06:22;6.10;99.90
17687;DHT22;8962;52.538;13.266;2023-04-02T09:08:51;6.80;99.90
17687;DHT22;8962;52.538;13.266;2023-04-02T09:11:23;6.90;99.90
17687;DHT22;8962;52.538;13.266;2023-04-02T09:13:55;7.10;99.90
17687;DHT22;8962;52.538;13.266;2023-04-02T09:16:35;7.00;99.90
17687;DHT22;8962;52.538;13.266;2023-04-02T09:19:15;7.40;99.90
17687;DHT22;8962;52.538;13.266;2023-04-02T09:21:46;7.40;99.90
17687;DHT22;8962;52.538;13.266;2023-04-02T09:24:21;7.30;99.90
17687;DHT22;8962;52.538;13.266;2023-04-02T09:26:49;7.40;99.90
17687;DHT22;8962;52.538;13.266;2023-04-02T09:29:27;7.80;99.90
17687;DHT22;8962;52.538;13.266;2023-04-02T09:34:46;8.10;99.90
17687;DHT22;8962;52.538;13.266;2023-04-02T09:37:17;8.30;99.90
17687;DHT22;8962;52.538;13.266;2023-04-02T09:39:44;8.70;99.90
17687;DHT22;8962;52.538;13.266;2023-04-02T09:42:29;8.60;99.90
17687;DHT22;8962;52.538;13.266;2023-04-02T09:45:13;8.50;99.90
17687;DHT22;8962;52.538;13.266;2023-04-02T09:47:41;8.70;99.90
17687;DHT22;8962;52.538;13.266;2023-04-02T09:50:25;8.80;99.90
17687;DHT22;8962;52.538;13.266;2023-04-02T09:52:55;9.10;99.90
17687;DHT22;8962;52.538;13.266;2023-04-02T09:55:24;8.90;99.90
17687;DHT22;8962;52.538;13.266;2023-04-02T09:58:09;8.70;99.90
17687;DHT22;8962;52.538;13.266;2023-04-02T10:00:37;8.00;99.90
17687;DHT22;8962;52.538;13.266;2023-04-02T10:03:13;7.30;99.90
17687;DHT22;8962;52.538;13.266;2023-04-02T10:05:45;7.30;99.90
17687;DHT22;8962;52.538;13.266;2023-04-02T10:08:25;7.20;99.90
17687;DHT22;8962;52.538;13.266;2023-04-02T10:10:56;7.40;99.90
17687;DHT22;8962;52.538;13.266;2023-04-02T10:13:28;7.80;99.90
17687;DHT22;8962;52.538;13.266;2023-04-02T10:15:59;8.00;99.90
17687;DHT22;8962;52.538;13.266;2023-04-02T10:18:40;7.90;99.90
17687;DHT22;8962;52.538;13.266;2023-04-02T10:21:10;8.30;99.90
17687;DHT22;8962;52.538;13.266;2023-04-02T10:23:40;8.40;99.90
17687;DHT22;8962;52.538;13.266;2023-04-02T10:26:32;8.70;99.90
17687;DHT22;8962;52.538;13.266;2023-04-02T10:29:19;8.70;99.90
17687;DHT22;8962;52.538;13.266;2023-04-02T10:31:56;8.30;99.90
17687;DHT22;8962;52.538;13.266;2023-04-02T10:34:33;8.10;99.90
17687;DHT22;8962;52.538;13.266;2023-04-02T10:37:11;7.70;99.90
17687;DHT22;8962;52.538;13.266;2023-04-02T10:39:52;7.70;99.90
17687;DHT22;8962;52.538;13.266;2023-04-02T10:42:27;7.80;99.90
17687;DHT22;8962;52.538;13.266;2023-04-02T10:45:00;7.60;99.90
17687;DHT22;8962;52.538;13.266;2023-04-02T10:47:37;7.50;99.90
17687;DHT22;8962;52.538;13.266;2023-04-02T10:50:22;7.50;99.90
17687;DHT22;8962;52.538;13.266;2023-04-02T10:52:55;7.60;99.90
17687;DHT22;8962;52.538;13.266;2023-04-02T10:55:29;7.90;99.90
17687;DHT22;8962;52.538;13.266;2023-04-02T10:58:01;7.90;99.90
17687;DHT22;8962;52.538;13.266;2023-04-02T11:00:33;8.20;99.90
17687;DHT22;8962;52.538;13.266;2023-04-02T11:03:05;8.40;99.90
17687;DHT22;8962;52.538;13.266;2023-04-02T11:05:39;8.90;99.90
17687;DHT22;8962;52.538;13.266;2023-04-02T11:08:15;9.30;99.90
17687;DHT22;8962;52.538;13.266;2023-04-02T11:10:46;9.60;99.90
17687;DHT22;8962;52.538;13.266;2023-04-02T11:13:20;9.30;99.90
17687;DHT22;8962;52.538;13.266;2023-04-02T11:15:50;9.10;99.90
17687;DHT22;8962;52.538;13.266;2023-04-02T11:18:23;8.80;99.90
17687;DHT22;8962;52.538;13.266;2023-04-02T11:21:02;8.70;99.90
17687;DHT22;8962;52.538;13.266;2023-04-02T11:23:36;8.50;99.90
17687;DHT22;8962;52.538;13.266;2023-04-02T11:26:37;8.20;99.90
17687;DHT22;8962;52.538;13.266;2023-04-02T11:29:23;9.00;99.90
17687;DHT22;8962;52.538;13.266;2023-04-02T11:35:25;9.30;99.90
17687;DHT22;8962;52.538;13.266;2023-04-02T11:37:53;11.10;99.90
17687;DHT22;8962;52.538;13.266;2023-04-02T11:40:44;12.00;99.90
17687;DHT22;8962;52.538;13.266;2023-04-02T11:43:51;13.70;99.90
17687;DHT22;8962;52.538;13.266;2023-04-02T11:46:42;14.20;99.90
17687;DHT22;8962;52.538;13.266;2023-04-02T11:49:39;13.20;99.90
17687;DHT22;8962;52.538;13.266;2023-04-02T11:52:24;12.10;99.90
17687;DHT22;8962;52.538;13.266;2023-04-02T11:55:21;11.00;99.90
17687;DHT22;8962;52.538;13.266;2023-04-02T12:04:33;9.90;99.90
17687;DHT22;8962;52.538;13.266;2023-04-02T12:07:22;9.80;99.90
17687;DHT22;8962;52.538;13.266;2023-04-02T12:10:02;10.20;99.90
17687;DHT22;8962;52.538;13.266;2023-04-02T12:12:33;10.80;99.90
17687;DHT22;8962;52.538;13.266;2023-04-02T12:15:04;10.40;99.90
17687;DHT22;8962;52.538;13.266;2023-04-02T12:17:35;9.90;99.90
17687;DHT22;8962;52.538;13.266;2023-04-02T12:20:17;9.40;99.90
17687;DHT22;8962;52.538;13.266;2023-04-02T12:22:48;9.40;99.90
17687;DHT22;8962;52.538;13.266;2023-04-02T12:25:24;9.50;99.90
17687;DHT22;8962;52.538;13.266;2023-04-02T12:28:13;9.60;99.90
17687;DHT22;8962;52.538;13.266;2023-04-02T12:30:46;10.30;99.90
17687;DHT22;8962;52.538;13.266;2023-04-02T12:33:23;10.70;99.90
17687;DHT22;8962;52.538;13.266;2023-04-02T12:35:56;10.40;99.90
17687;DHT22;8962;52.538;13.266;2023-04-02T12:38:27;10.20;99.90
17687;DHT22;8962;52.538;13.266;2023-04-02T12:40:56;10.90;99.90
17687;DHT22;8962;52.538;13.266;2023-04-02T12:43:28;11.20;99.90
17687;DHT22;8962;52.538;13.266;2023-04-02T12:45:58;12.30;99.90
17687;DHT22;8962;52.538;13.266;2023-04-02T12:48:28;12.50;99.90
17687;DHT22;8962;52.538;13.266;2023-04-02T12:50:56;11.80;99.90
17687;DHT22;8962;52.538;13.266;2023-04-02T12:53:26;12.60;99.90
17687;DHT22;8962;52.538;13.266;2023-04-02T12:55:55;12.70;99.90
17687;DHT22;8962;52.538;13.266;2023-04-02T12:58:25;12.40;99.90
17687;DHT22;8962;52.538;13.266;2023-04-02T13:01:09;12.20;99.90
17687;DHT22;8962;52.538;13.266;2023-04-02T13:03:38;12.80;99.90
17687;DHT22;8962;52.538;13.266;2023-04-02T13:06:19;14.20;97.10
17687;DHT22;8962;52.538;13.266;2023-04-02T13:08:48;14.00;95.90
17687;DHT22;8962;52.538;13.266;2023-04-02T13:11:16;13.60;96.50
17687;DHT22;8962;52.538;13.266;2023-04-02T13:13:45;12.80;96.40
17687;DHT22;8962;52.538;13.266;2023-04-02T13:16:31;11.30;98.40
17687;DHT22;8962;52.538;13.266;2023-04-02T13:19:20;10.90;99.80
17687;DHT22;8962;52.538;13.266;2023-04-02T13:21:48;10.50;99.90
17687;DHT22;8962;52.538;13.266;2023-04-02T13:24:18;10.80;99.90
17687;DHT22;8962;52.538;13.266;2023-04-02T13:26:46;11.20;99.90
17687;DHT22;8962;52.538;13.266;2023-04-02T13:29:21;10.40;99.90
17687;DHT22;8962;52.538;13.266;2023-04-02T13:31:49;10.50;99.90
17687;DHT22;8962;52.538;13.266;2023-04-02T13:34:18;10.50;99.90
17687;DHT22;8962;52.538;13.266;2023-04-02T13:36:45;10.50;99.90
17687;DHT22;8962;52.538;13.266;2023-04-02T13:39:13;10.50;99.90
17687;DHT22;8962;52.538;13.266;2023-04-02T13:41:44;10.40;99.90
17687;DHT22;8962;52.538;13.266;2023-04-02T13:44:19;10.10;99.90
17687;DHT22;8962;52.538;13.266;2023-04-02T13:46:47;9.90;99.90
17687;DHT22;8962;52.538;13.266;2023-04-02T13:49:24;10.00;99.90
17687;DHT22;8962;52.538;13.266;2023-04-02T13:51:53;10.00;99.90
17687;DHT22;8962;52.538;13.266;2023-04-02T13:54:25;10.70;99.90
17687;DHT22;8962;52.538;13.266;2023-04-02T13:56:55;10.90;99.90
17687;DHT22;8962;52.538;13.266;2023-04-02T13:59:23;10.40;99.90
17687;DHT22;8962;52.538;13.266;2023-04-02T14:01:53;10.40;99.90
17687;DHT22;8962;52.538;13.266;2023-04-02T14:04:29;10.40;99.90
17687;DHT22;8962;52.538;13.266;2023-04-02T14:07:27;10.10;99.90
17687;DHT22;8962;52.538;13.266;2023-04-02T14:10:07;9.50;99.90
17687;DHT22;8962;52.538;13.266;2023-04-02T14:12:51;9.70;99.90
17687;DHT22;8962;52.538;13.266;2023-04-02T14:15:38;9.90;99.90
17687;DHT22;8962;52.538;13.266;2023-04-02T14:18:27;11.40;99.90
17687;DHT22;8962;52.538;13.266;2023-04-02T14:21:08;12.00;99.40
17687;DHT22;8962;52.538;13.266;2023-04-02T14:23:48;11.70;99.90
17687;DHT22;8962;52.538;13.266;2023-04-02T14:26:23;13.30;96.10
17687;DHT22;8962;52.538;13.266;2023-04-02T14:28:59;15.20;93.10
17687;DHT22;8962;52.538;13.266;2023-04-02T14:31:33;15.50;88.60
17687;DHT22;8962;52.538;13.266;2023-04-02T14:34:08;13.80;90.70
17687;DHT22;8962;52.538;13.266;2023-04-02T14:36:47;12.00;94.00
17687;DHT22;8962;52.538;13.266;2023-04-02T14:39:26;11.50;96.60
17687;DHT22;8962;52.538;13.266;2023-04-02T14:42:01;11.30;96.40
17687;DHT22;8962;52.538;13.266;2023-04-02T14:44:34;10.20;98.40
17687;DHT22;8962;52.538;13.266;2023-04-02T14:47:13;10.00;99.90
17687;DHT22;8962;52.538;13.266;2023-04-02T14:49:44;10.00;99.90
17687;DHT22;8962;52.538;13.266;2023-04-02T14:52:19;9.90;99.90
17687;DHT22;8962;52.538;13.266;2023-04-02T14:54:51;9.90;99.90
17687;DHT22;8962;52.538;13.266;2023-04-02T14:57:22;9.90;99.90
17687;DHT22;8962;52.538;13.266;2023-04-02T14:59:59;9.80;99.90
17687;DHT22;8962;52.538;13.266;2023-04-02T15:02:36;9.70;99.90
17687;DHT22;8962;52.538;13.266;2023-04-02T15:05:12;9.40;99.90
17687;DHT22;8962;52.538;13.266;2023-04-02T15:07:45;9.10;99.90
17687;DHT22;8962;52.538;13.266;2023-04-02T15:10:21;9.10;99.90
17687;DHT22;8962;52.538;13.266;2023-04-02T15:12:51;9.00;99.90
17687;DHT22;8962;52.538;13.266;2023-04-02T15:15:33;9.10;99.90
17687;DHT22;8962;52.538;13.266;2023-04-02T15:18:02;9.00;99.90
17687;DHT22;8962;52.538;13.266;2023-04-02T15:20:37;8.70;99.90
17687;DHT22;8962;52.538;13.266;2023-04-02T15:23:17;8.70;99.90
17687;DHT22;8962;52.538;13.266;2023-04-02T15:25:53;8.90;99.90
17687;DHT22;8962;52.538;13.266;2023-04-02T15:28:27;8.70;99.90
17687;DHT22;8962;52.538;13.266;2023-04-02T15:30:59;8.80;99.90
17687;DHT22;8962;52.538;13.266;2023-04-02T15:33:39;8.40;99.90
17687;DHT22;8962;52.538;13.266;2023-04-02T15:37:00;8.20;99.90
17687;DHT22;8962;52.538;13.266;2023-04-02T15:39:40;7.90;99.90
17687;DHT22;8962;52.538;13.266;2023-04-02T15:42:20;7.70;99.90
17687;DHT22;8962;52.538;13.266;2023-04-02T15:45:21;7.50;99.90
17687;DHT22;8962;52.538;13.266;2023-04-02T15:48:04;7.50;99.90
17687;DHT22;8962;52.538;13.266;2023-04-02T15:50:43;7.60;99.90
17687;DHT22;8962;52.538;13.266;2023-04-02T15:53:30;7.70;99.90
17687;DHT22;8962;52.538;13.266;2023-04-02T15:56:07;7.70;99.90
17687;DHT22;8962;52.538;13.266;2023-04-02T15:58:50;7.70;99.90
17687;DHT22;8962;52.538;13.266;2023-04-02T16:01:26;7.60;99.90
17687;DHT22;8962;52.538;13.266;2023-04-02T16:04:16;7.60;99.90
17687;DHT22;8962;52.538;13.266;2023-04-02T16:06:58;7.50;99.90
17687;DHT22;8962;52.538;13.266;2023-04-02T16:09:27;7.60;99.90
17687;DHT22;8962;52.538;13.266;2023-04-02T16:12:08;7.60;99.90
17687;DHT22;8962;52.538;13.266;2023-04-02T16:14:38;7.70;99.90
17687;DHT22;8962;52.538;13.266;2023-04-02T16:17:14;7.90;99.90
17687;DHT22;8962;52.538;13.266;2023-04-02T16:19:47;7.80;99.90
17687;DHT22;8962;52.538;13.266;2023-04-02T16:22:20;7.40;99.90
17687;DHT22;8962;52.538;13.266;2023-04-02T16:24:56;7.40;99.90
17687;DHT22;8962;52.538;13.266;2023-04-02T16:27:39;7.40;99.90
17687;DHT22;8962;52.538;13.266;2023-04-02T16:30:27;7.20;99.90
17687;DHT22;8962;52.538;13.266;2023-04-02T16:33:09;7.10;99.90
17687;DHT22;8962;52.538;13.266;2023-04-02T16:35:44;7.00;99.90
17687;DHT22;8962;52.538;13.266;2023-04-02T16:38:20;6.80;99.90
17687;DHT22;8962;52.538;13.266;2023-04-02T16:40:55;6.80;99.90
17687;DHT22;8962;52.538;13.266;2023-04-02T16:43:31;6.80;99.90